createdAt,value
2018-12-13T00:01:20.134Z,0.90
2018-12-13T00:03:47.755Z,0.80
2018-12-13T00:06:15.281Z,0.80
2018-12-13T00:08:42.836Z,1.00
2018-12-13T00:11:10.471Z,1.00
2018-12-13T00:13:38.039Z,0.90
2018-12-13T00:16:05.575Z,0.80
2018-12-13T00:18:33.128Z,0.90
2018-12-13T00:21:00.761Z,0.80
2018-12-13T00:23:28.310Z,0.70
2018-12-13T00:25:55.877Z,0.70
2018-12-13T00:28:23.472Z,0.70
2018-12-13T00:30:51.142Z,0.90
2018-12-13T00:33:18.720Z,0.80
2018-12-13T00:35:46.245Z,0.80
2018-12-13T00:38:13.858Z,0.80
2018-12-13T00:40:41.391Z,0.70
2018-12-13T00:43:09.006Z,0.70
2018-12-13T00:45:36.582Z,0.90
2018-12-13T00:48:04.170Z,0.80
2018-12-13T00:50:31.825Z,0.70
2018-12-13T00:52:59.369Z,0.60
2018-12-13T00:55:26.970Z,0.40
2018-12-13T00:57:54.537Z,0.50
2018-12-13T01:00:22.114Z,0.40
2018-12-13T01:02:49.662Z,0.50
2018-12-13T01:05:17.189Z,0.60
2018-12-13T01:07:44.784Z,0.60
2018-12-13T01:10:12.407Z,0.60
2018-12-13T01:12:40.092Z,0.70
2018-12-13T01:15:07.709Z,0.60
2018-12-13T01:17:35.266Z,0.60
2018-12-13T01:20:02.850Z,0.60
2018-12-13T01:22:30.428Z,0.70
2018-12-13T01:24:58.066Z,0.70
2018-12-13T01:27:25.646Z,0.80
2018-12-13T01:29:53.177Z,0.80
2018-12-13T01:32:20.726Z,1.00
2018-12-13T01:34:48.334Z,0.80
2018-12-13T01:37:15.906Z,0.70
2018-12-13T01:39:43.453Z,0.50
2018-12-13T01:42:11.051Z,0.20
2018-12-13T01:44:38.727Z,0.10
2018-12-13T01:47:06.260Z,0.10
2018-12-13T01:49:33.815Z,0.00
2018-12-13T01:52:01.352Z,0.00
2018-12-13T01:54:28.915Z,-0.10
2018-12-13T01:56:56.482Z,-0.20
2018-12-13T01:59:24.042Z,-0.30
2018-12-13T02:01:51.628Z,-0.40
2018-12-13T02:04:19.185Z,-0.50
2018-12-13T02:06:46.718Z,-0.40
2018-12-13T02:09:14.346Z,-0.40
2018-12-13T02:11:41.922Z,-0.60
2018-12-13T02:14:09.491Z,-0.70
2018-12-13T02:16:37.029Z,-0.70
2018-12-13T02:19:04.584Z,-0.70
2018-12-13T02:21:32.128Z,-0.30
2018-12-13T02:24:00.177Z,0.00
2018-12-13T02:26:27.711Z,0.00
2018-12-13T02:28:55.274Z,-0.20
2018-12-13T02:31:22.826Z,-0.20
2018-12-13T02:33:50.381Z,-0.40
2018-12-13T02:36:17.917Z,-0.40
2018-12-13T02:38:45.469Z,-0.60
2018-12-13T02:41:13.006Z,-0.60
2018-12-13T02:43:40.561Z,-0.70
2018-12-13T02:46:08.094Z,-0.50
2018-12-13T02:48:35.654Z,-0.30
2018-12-13T02:51:03.190Z,-0.50
2018-12-13T02:53:30.754Z,-0.70
2018-12-13T02:55:58.291Z,-0.70
2018-12-13T02:58:25.847Z,-0.70
2018-12-13T03:00:53.386Z,-0.80
2018-12-13T03:03:20.945Z,-0.90
2018-12-13T03:05:48.477Z,-1.00
2018-12-13T03:08:16.038Z,-1.10
2018-12-13T03:10:43.584Z,-1.10
2018-12-13T03:13:11.144Z,-1.20
2018-12-13T03:15:38.678Z,-1.20
2018-12-13T03:18:06.250Z,-1.20
2018-12-13T03:20:33.799Z,-1.20
2018-12-13T03:23:01.338Z,-1.20
2018-12-13T03:25:28.886Z,-1.30
2018-12-13T03:27:56.430Z,-1.40
2018-12-13T03:30:23.990Z,-1.50
2018-12-13T03:32:51.531Z,-1.60
2018-12-13T03:35:19.094Z,-1.60
2018-12-13T03:37:46.634Z,-1.60
2018-12-13T03:40:14.231Z,-1.60
2018-12-13T03:42:41.772Z,-1.50
2018-12-13T03:45:09.412Z,-1.60
2018-12-13T03:47:36.948Z,-1.60
2018-12-13T03:50:05.494Z,-1.60
2018-12-13T03:52:33.038Z,-1.60
2018-12-13T03:55:00.597Z,-1.60
2018-12-13T03:57:28.131Z,-1.60
2018-12-13T03:59:55.690Z,-1.60
2018-12-13T04:02:23.298Z,-1.50
2018-12-13T04:04:50.909Z,-1.50
2018-12-13T04:07:18.443Z,-1.50
2018-12-13T04:09:46.003Z,-1.70
2018-12-13T04:12:13.555Z,-1.70
2018-12-13T04:14:41.111Z,-1.60
2018-12-13T04:17:08.650Z,-1.70
2018-12-13T04:19:36.215Z,-1.70
2018-12-13T04:22:03.793Z,-1.80
2018-12-13T04:24:31.346Z,-1.80
2018-12-13T04:26:58.882Z,-1.80
2018-12-13T04:29:26.442Z,-1.90
2018-12-13T04:31:53.982Z,-1.90
2018-12-13T04:34:21.541Z,-2.00
2018-12-13T04:36:49.082Z,-2.00
2018-12-13T04:39:16.642Z,-2.10
2018-12-13T04:41:44.182Z,-2.00
2018-12-13T04:44:11.747Z,-2.20
2018-12-13T04:46:39.292Z,-2.40
2018-12-13T04:49:06.859Z,-2.40
2018-12-13T04:51:34.398Z,-2.40
2018-12-13T04:54:02.009Z,-2.30
2018-12-13T04:56:29.557Z,-2.20
2018-12-13T04:58:57.140Z,-2.20
2018-12-13T05:01:24.722Z,-2.10
2018-12-13T05:03:52.283Z,-2.10
2018-12-13T05:06:19.882Z,-2.10
2018-12-13T05:08:47.430Z,-2.10
2018-12-13T05:11:14.986Z,-2.10
2018-12-13T05:13:42.522Z,-2.00
2018-12-13T05:16:10.087Z,-2.00
2018-12-13T05:18:37.622Z,-2.20
2018-12-13T05:21:05.218Z,-2.10
2018-12-13T05:23:32.799Z,-2.10
2018-12-13T05:26:00.360Z,-2.00
2018-12-13T05:28:27.902Z,-2.10
2018-12-13T05:30:55.642Z,-2.10
2018-12-13T05:33:23.183Z,-2.00
2018-12-13T05:35:50.739Z,-2.10
2018-12-13T05:38:18.275Z,-2.00
2018-12-13T05:40:45.835Z,-2.00
2018-12-13T05:43:13.365Z,-2.00
2018-12-13T05:45:40.982Z,-1.80
2018-12-13T05:48:08.518Z,-1.90
2018-12-13T05:50:36.075Z,-1.70
2018-12-13T05:53:03.610Z,-1.60
2018-12-13T05:55:31.170Z,-1.50
2018-12-13T05:57:58.885Z,-1.60
2018-12-13T06:00:26.445Z,-1.70
2018-12-13T06:02:53.974Z,-1.70
2018-12-13T06:05:21.535Z,-1.80
2018-12-13T06:07:54.682Z,-1.80
2018-12-13T06:10:18.683Z,-1.90
2018-12-13T06:12:46.267Z,-1.90
2018-12-13T06:15:13.827Z,-1.40
2018-12-13T06:17:41.365Z,-0.70
2018-12-13T06:20:08.918Z,-0.70
2018-12-13T06:22:36.463Z,-1.00
2018-12-13T06:25:04.603Z,-1.00
2018-12-13T06:27:32.154Z,-1.10
2018-12-13T06:29:59.719Z,-1.10
2018-12-13T06:32:27.298Z,-1.20
2018-12-13T06:34:54.860Z,-1.30
2018-12-13T06:37:22.398Z,-1.30
2018-12-13T06:39:49.998Z,-1.30
2018-12-13T06:42:17.540Z,-1.30
2018-12-13T06:44:45.149Z,-1.00
2018-12-13T06:47:12.682Z,-1.10
2018-12-13T06:49:40.244Z,-1.20
2018-12-13T06:52:07.803Z,-1.10
2018-12-13T06:54:35.339Z,-1.10
2018-12-13T06:57:02.904Z,-0.70
2018-12-13T06:59:30.437Z,-0.70
2018-12-13T07:01:58.031Z,-0.80
2018-12-13T07:04:25.611Z,-0.60
2018-12-13T07:06:53.345Z,-0.60
2018-12-13T07:09:20.884Z,-0.70
2018-12-13T07:11:48.446Z,-0.70
2018-12-13T07:14:15.986Z,-0.40
2018-12-13T07:16:43.550Z,-0.40
2018-12-13T07:19:11.091Z,-0.20
2018-12-13T07:21:38.645Z,-0.10
2018-12-13T07:24:06.186Z,-0.10
2018-12-13T07:26:33.739Z,0.20
2018-12-13T07:29:01.271Z,0.40
2018-12-13T07:31:28.830Z,0.30
2018-12-13T07:33:56.364Z,0.20
2018-12-13T07:36:23.922Z,0.10
2018-12-13T07:38:51.464Z,-0.10
2018-12-13T07:41:19.021Z,-0.30
2018-12-13T07:43:46.559Z,-0.10
2018-12-13T07:46:14.194Z,0.00
2018-12-13T07:48:41.725Z,0.30
2018-12-13T07:51:09.282Z,0.10
2018-12-13T07:53:36.817Z,0.10
2018-12-13T07:56:04.458Z,-0.10
2018-12-13T07:58:31.989Z,0.10
2018-12-13T08:00:59.578Z,0.00
2018-12-13T08:03:27.109Z,0.00
2018-12-13T08:05:54.661Z,-0.10
2018-12-13T08:08:22.194Z,0.00
2018-12-13T08:10:49.749Z,0.10
2018-12-13T08:13:17.286Z,0.40
2018-12-13T08:15:44.838Z,0.20
2018-12-13T08:18:12.369Z,0.30
2018-12-13T08:20:39.922Z,0.70
2018-12-13T08:23:07.454Z,0.70
2018-12-13T08:25:35.008Z,1.00
2018-12-13T08:28:02.547Z,1.10
2018-12-13T08:30:30.113Z,1.00
2018-12-13T08:32:57.643Z,0.80
2018-12-13T08:35:25.177Z,0.60
2018-12-13T08:37:52.726Z,0.40
2018-12-13T08:40:20.255Z,0.40
2018-12-13T08:42:47.813Z,0.50
2018-12-13T08:45:15.342Z,0.60
2018-12-13T08:47:42.893Z,0.40
2018-12-13T08:50:10.421Z,0.60
2018-12-13T08:52:37.970Z,0.50
2018-12-13T08:55:05.691Z,0.40
2018-12-13T08:57:33.250Z,0.30
2018-12-13T09:00:00.778Z,0.60
2018-12-13T09:02:28.330Z,0.80
2018-12-13T09:04:55.860Z,0.70
2018-12-13T09:07:23.413Z,0.60
2018-12-13T09:09:50.957Z,0.40
2018-12-13T09:12:18.509Z,0.60
2018-12-13T09:14:46.041Z,0.60
2018-12-13T09:17:13.595Z,0.50
2018-12-13T09:19:41.130Z,0.70
2018-12-13T09:22:08.677Z,0.60
2018-12-13T09:24:36.222Z,0.60
2018-12-13T09:27:03.941Z,0.50
2018-12-13T09:29:31.474Z,0.40
2018-12-13T09:31:59.032Z,0.30
2018-12-13T09:34:26.557Z,0.60
2018-12-13T09:36:54.115Z,1.10
2018-12-13T09:39:21.694Z,1.30
2018-12-13T09:41:49.250Z,1.50
2018-12-13T09:44:16.835Z,1.60
2018-12-13T09:46:44.426Z,1.60
2018-12-13T09:49:11.959Z,1.90
2018-12-13T09:51:39.512Z,2.10
2018-12-13T09:54:07.041Z,2.20
2018-12-13T09:56:34.594Z,2.50
2018-12-13T09:59:02.127Z,2.80
2018-12-13T10:01:29.718Z,2.80
2018-12-13T10:03:57.249Z,2.90
2018-12-13T10:06:24.808Z,2.90
2018-12-13T10:08:52.341Z,2.90
2018-12-13T10:11:19.894Z,2.70
2018-12-13T10:13:47.426Z,2.30
2018-12-13T10:16:14.978Z,2.00
2018-12-13T10:18:42.511Z,1.70
2018-12-13T10:21:10.046Z,1.50
2018-12-13T10:23:37.601Z,1.40
2018-12-13T10:26:05.138Z,1.20
2018-12-13T10:28:32.689Z,1.20
2018-12-13T10:31:00.213Z,1.50
2018-12-13T10:33:27.767Z,2.10
2018-12-13T10:35:55.342Z,2.30
2018-12-13T10:38:22.895Z,2.70
2018-12-13T10:40:50.436Z,2.70
2018-12-13T10:43:17.992Z,2.70
2018-12-13T10:45:45.524Z,2.80
2018-12-13T10:48:13.071Z,3.20
2018-12-13T10:50:40.609Z,3.20
2018-12-13T10:53:08.163Z,3.20
2018-12-13T10:55:35.702Z,3.00
2018-12-13T10:58:03.255Z,2.70
2018-12-13T11:00:36.454Z,2.60
2018-12-13T11:03:19.173Z,2.70
2018-12-13T11:05:46.750Z,2.50
2018-12-13T11:08:14.353Z,2.80
2018-12-13T11:10:41.938Z,2.60
2018-12-13T11:13:09.489Z,2.80
2018-12-13T11:15:37.022Z,2.50
2018-12-13T11:18:04.618Z,2.50
2018-12-13T11:20:32.150Z,2.80
2018-12-13T11:22:59.802Z,3.20
2018-12-13T11:25:27.406Z,3.30
2018-12-13T11:31:10.991Z,3.30
2018-12-13T11:33:38.586Z,3.20
2018-12-13T11:36:06.118Z,3.00
2018-12-13T11:38:33.671Z,2.70
2018-12-13T11:41:01.198Z,2.30
2018-12-13T11:43:28.754Z,1.80
2018-12-13T11:45:56.284Z,1.90
2018-12-13T11:48:23.838Z,1.80
2018-12-13T11:50:51.365Z,2.00
2018-12-13T11:53:18.959Z,2.20
2018-12-13T11:55:46.535Z,2.20
2018-12-13T11:58:14.081Z,2.30
2018-12-13T12:00:41.660Z,2.60
2018-12-13T12:03:09.253Z,2.70
2018-12-13T12:05:36.786Z,2.70
2018-12-13T12:08:04.382Z,2.40
2018-12-13T12:10:31.958Z,2.30
2018-12-13T12:12:59.518Z,2.10
2018-12-13T12:15:27.053Z,2.00
2018-12-13T12:17:54.605Z,2.10
2018-12-13T12:20:22.134Z,2.10
2018-12-13T12:22:49.690Z,2.10
2018-12-13T12:25:17.253Z,2.30
2018-12-13T12:27:44.806Z,2.10
2018-12-13T12:30:12.419Z,2.00
2018-12-13T12:32:39.967Z,1.80
2018-12-13T12:35:07.587Z,1.70
2018-12-13T12:37:35.141Z,1.40
2018-12-13T12:40:02.754Z,1.30
2018-12-13T12:42:30.307Z,1.40
2018-12-13T12:44:57.842Z,1.60
2018-12-13T12:47:25.418Z,1.90
2018-12-13T12:49:52.989Z,2.00
2018-12-13T12:52:20.522Z,2.00
2018-12-13T12:54:48.111Z,1.80
2018-12-13T12:57:15.642Z,1.80
2018-12-13T12:59:43.194Z,1.70
2018-12-13T13:02:10.732Z,1.70
2018-12-13T13:04:38.414Z,1.60
2018-12-13T13:07:06.030Z,1.70
2018-12-13T13:09:33.586Z,1.60
2018-12-13T13:12:01.157Z,1.50
2018-12-13T13:14:28.711Z,1.40
2018-12-13T13:16:56.239Z,1.30
2018-12-13T13:19:23.835Z,1.40
2018-12-13T13:21:51.366Z,1.30
2018-12-13T13:24:18.926Z,1.20
2018-12-13T13:26:46.502Z,1.10
2018-12-13T13:29:14.054Z,1.00
2018-12-13T13:31:41.664Z,1.00
2018-12-13T13:34:09.220Z,1.00
2018-12-13T13:36:36.749Z,1.00
2018-12-13T13:39:06.243Z,1.00
2018-12-13T13:41:33.769Z,1.10
2018-12-13T13:44:01.322Z,1.10
2018-12-13T13:46:28.869Z,1.30
2018-12-13T13:48:56.422Z,1.60
2018-12-13T13:51:24.038Z,1.70
2018-12-13T13:53:51.635Z,1.90
2018-12-13T13:56:19.176Z,1.80
2018-12-13T13:58:46.765Z,1.90
2018-12-13T14:01:14.293Z,1.80
2018-12-13T14:03:41.842Z,1.80
2018-12-13T14:06:09.383Z,2.10
2018-12-13T14:08:36.977Z,2.00
2018-12-13T14:11:04.639Z,1.80
2018-12-13T14:13:32.190Z,1.80
2018-12-13T14:15:59.717Z,2.10
2018-12-13T14:18:27.271Z,2.20
2018-12-13T14:20:54.806Z,2.30
2018-12-13T14:23:22.433Z,2.10
2018-12-13T14:25:49.970Z,1.90
2018-12-13T14:28:17.521Z,1.80
2018-12-13T14:30:45.045Z,1.80
2018-12-13T14:33:12.580Z,1.90
2018-12-13T14:35:40.126Z,1.70
2018-12-13T14:38:07.659Z,1.40
2018-12-13T14:40:35.214Z,1.20
2018-12-13T14:43:02.741Z,1.00
2018-12-13T14:45:30.294Z,0.90
2018-12-13T14:47:57.822Z,0.80
2018-12-13T14:50:25.380Z,0.80
2018-12-13T14:52:52.915Z,0.80
2018-12-13T14:55:20.522Z,1.00
2018-12-13T14:57:48.058Z,1.20
2018-12-13T15:00:15.674Z,1.20
2018-12-13T15:02:43.351Z,1.10
2018-12-13T15:05:11.246Z,1.00
2018-12-13T15:07:38.777Z,0.90
2018-12-13T15:10:06.414Z,0.90
2018-12-13T15:12:33.945Z,0.70
2018-12-13T15:15:01.489Z,0.50
2018-12-13T15:17:29.029Z,0.50
2018-12-13T15:19:56.609Z,0.40
2018-12-13T15:22:24.142Z,0.20
2018-12-13T15:24:51.806Z,0.20
2018-12-13T15:27:19.482Z,0.20
2018-12-13T15:29:47.038Z,0.40
2018-12-13T15:32:14.570Z,0.30
2018-12-13T15:34:42.166Z,0.20
2018-12-13T15:37:09.725Z,0.10
2018-12-13T15:39:37.282Z,0.10
2018-12-13T15:42:04.850Z,-0.10
2018-12-13T15:44:32.410Z,-0.10
2018-12-13T15:46:59.947Z,-0.20
2018-12-13T15:49:27.641Z,-0.30
2018-12-13T15:51:55.214Z,0.00
2018-12-13T15:54:22.770Z,0.10
2018-12-13T15:56:50.297Z,0.40
2018-12-13T15:59:17.855Z,0.30
2018-12-13T16:01:45.438Z,0.30
2018-12-13T16:04:12.993Z,0.30
2018-12-13T16:06:40.526Z,0.30
2018-12-13T16:09:08.213Z,0.20
2018-12-13T16:11:35.738Z,0.20
2018-12-13T16:14:03.399Z,0.10
2018-12-13T16:16:30.978Z,0.30
2018-12-13T16:18:58.509Z,0.20
2018-12-13T16:21:26.109Z,0.50
2018-12-13T16:23:53.638Z,0.80
2018-12-13T16:26:21.230Z,1.20
2018-12-13T16:28:48.858Z,1.10
2018-12-13T16:31:16.454Z,1.10
2018-12-13T16:33:43.986Z,1.10
2018-12-13T16:36:11.578Z,1.00
2018-12-13T16:38:39.105Z,0.70
2018-12-13T16:41:06.661Z,0.50
2018-12-13T16:43:34.207Z,0.30
2018-12-13T16:46:01.757Z,0.20
2018-12-13T16:48:29.330Z,0.10
2018-12-13T16:50:56.886Z,0.00
2018-12-13T16:53:24.422Z,0.20
2018-12-13T16:55:51.983Z,0.20
2018-12-13T16:58:19.510Z,0.00
2018-12-13T17:00:47.147Z,0.10
2018-12-13T17:03:26.462Z,0.10
2018-12-13T17:05:54.058Z,0.10
2018-12-13T17:08:21.590Z,0.00
2018-12-13T17:10:49.142Z,0.00
2018-12-13T17:13:16.711Z,0.00
2018-12-13T17:15:44.262Z,0.00
2018-12-13T17:18:11.811Z,0.00
2018-12-13T17:20:39.523Z,0.00
2018-12-13T17:23:07.158Z,0.10
2018-12-13T17:25:34.709Z,0.30
2018-12-13T17:28:02.243Z,0.30
2018-12-13T17:30:29.843Z,0.30
2018-12-13T17:32:57.430Z,0.30
2018-12-13T17:35:24.981Z,0.30
2018-12-13T17:37:52.602Z,0.30
2018-12-13T17:40:22.981Z,0.30
2018-12-13T17:42:49.715Z,0.20
2018-12-13T17:45:17.278Z,0.20
2018-12-13T17:47:44.809Z,0.30
2018-12-13T17:50:13.227Z,0.30
2018-12-13T17:52:40.898Z,0.30
2018-12-13T17:55:08.529Z,0.30
2018-12-13T17:57:36.150Z,0.20
2018-12-13T18:00:09.322Z,0.30
2018-12-13T18:02:36.899Z,0.40
2018-12-13T18:05:04.746Z,0.70
2018-12-13T18:07:32.398Z,0.60
2018-12-13T18:10:00.046Z,0.90
2018-12-13T18:12:27.628Z,1.20
2018-12-13T18:14:55.203Z,1.20
2018-12-13T18:17:22.772Z,1.60
2018-12-13T18:19:50.344Z,1.70
2018-12-13T18:22:17.938Z,1.50
2018-12-13T18:24:45.589Z,1.30
2018-12-13T18:27:13.157Z,1.10
2018-12-13T18:29:40.682Z,1.20
2018-12-13T18:32:08.309Z,1.20
2018-12-13T18:34:35.846Z,1.10
2018-12-13T18:37:03.666Z,1.00
2018-12-13T18:39:31.198Z,1.10
2018-12-13T18:41:58.807Z,1.50
2018-12-13T18:44:26.361Z,1.70
2018-12-13T18:46:53.946Z,1.60
2018-12-13T18:49:21.478Z,1.60
2018-12-13T18:51:49.070Z,1.30
2018-12-13T18:54:16.601Z,1.30
2018-12-13T18:56:44.153Z,1.00
2018-12-13T18:59:11.682Z,0.70
2018-12-13T19:01:39.234Z,0.60
2018-12-13T19:04:06.766Z,0.80
2018-12-13T19:06:34.315Z,1.20
2018-12-13T19:09:01.891Z,1.20
2018-12-13T19:11:29.446Z,1.10
2018-12-13T19:13:56.970Z,0.90
2018-12-13T19:16:24.513Z,0.70
2018-12-13T19:18:52.074Z,0.70
2018-12-13T19:21:19.671Z,0.40
2018-12-13T19:23:47.222Z,0.50
2018-12-13T19:26:14.810Z,0.40
2018-12-13T19:28:42.346Z,0.50
2018-12-13T19:31:09.894Z,0.50
2018-12-13T19:33:37.430Z,0.50
2018-12-13T19:36:04.987Z,0.60
2018-12-13T19:38:32.527Z,0.50
2018-12-13T19:41:00.225Z,0.60
2018-12-13T19:43:27.761Z,0.70
2018-12-13T19:45:55.380Z,0.80
2018-12-13T19:48:23.026Z,0.60
2018-12-13T19:50:50.922Z,0.70
2018-12-13T19:53:18.595Z,0.80
2018-12-13T19:55:46.176Z,0.60
2018-12-13T19:58:13.747Z,0.60
2018-12-13T20:00:41.310Z,0.70
2018-12-13T20:03:09.052Z,0.50
2018-12-13T20:05:36.635Z,0.50
2018-12-13T20:08:04.475Z,0.40
2018-12-13T20:10:32.042Z,0.40
2018-12-13T20:12:59.688Z,0.40
2018-12-13T20:15:27.313Z,0.40
2018-12-13T20:17:54.946Z,0.40
2018-12-13T20:20:22.546Z,0.40
2018-12-13T20:22:50.102Z,0.30
2018-12-13T20:25:17.663Z,0.30
2018-12-13T20:27:45.448Z,0.30
2018-12-13T20:30:13.117Z,0.30
2018-12-13T20:32:40.662Z,0.30
2018-12-13T20:35:08.323Z,0.30
2018-12-13T20:37:35.869Z,0.40
2018-12-13T20:40:03.803Z,0.30
2018-12-13T20:42:31.401Z,0.30
2018-12-13T20:44:58.934Z,0.50
2018-12-13T20:47:26.486Z,0.40
2018-12-13T20:49:54.019Z,0.40
2018-12-13T20:52:21.666Z,0.30
2018-12-13T20:54:49.203Z,0.20
2018-12-13T20:57:16.758Z,0.30
2018-12-13T20:59:44.285Z,0.30
2018-12-13T21:02:11.840Z,0.40
2018-12-13T21:04:39.375Z,0.40
2018-12-13T21:07:12.687Z,0.30
2018-12-13T21:09:40.298Z,0.20
2018-12-13T21:12:07.858Z,0.30
2018-12-13T21:14:35.450Z,0.30
2018-12-13T21:17:03.241Z,0.30
2018-12-13T21:19:30.793Z,0.50
2018-12-13T21:21:58.370Z,0.40
2018-12-13T21:24:25.901Z,0.40
2018-12-13T21:26:53.618Z,0.30
2018-12-13T21:29:21.155Z,0.30
2018-12-13T21:31:48.713Z,0.30
2018-12-13T21:34:16.336Z,0.30
2018-12-13T21:36:44.013Z,0.20
2018-12-13T21:39:11.686Z,0.20
2018-12-13T21:41:39.240Z,0.30
2018-12-13T21:44:06.929Z,0.40
2018-12-13T21:46:34.506Z,0.30
2018-12-13T21:49:02.187Z,0.40
2018-12-13T21:51:29.849Z,0.40
2018-12-13T21:53:57.408Z,0.40
2018-12-13T21:56:24.982Z,0.40
2018-12-13T21:58:52.575Z,0.30
2018-12-13T22:01:20.142Z,0.30
2018-12-13T22:03:47.711Z,0.30
2018-12-13T22:06:15.258Z,0.30
2018-12-13T22:08:42.949Z,0.40
2018-12-13T22:11:10.486Z,0.20
2018-12-13T22:13:38.286Z,0.20
2018-12-13T22:16:05.882Z,0.20
2018-12-13T22:18:33.605Z,0.20
2018-12-13T22:21:01.146Z,0.20
2018-12-13T22:23:28.807Z,0.20
2018-12-13T22:25:56.425Z,0.20
2018-12-13T22:28:24.035Z,0.30
2018-12-13T22:30:51.626Z,0.30
2018-12-13T22:33:19.198Z,0.30
2018-12-13T22:35:46.731Z,0.60
2018-12-13T22:38:14.326Z,0.60
2018-12-13T22:40:41.910Z,0.60
2018-12-13T22:43:09.584Z,1.00
2018-12-13T22:45:37.163Z,1.30
2018-12-13T22:48:04.829Z,1.30
2018-12-13T22:50:32.410Z,1.50
2018-12-13T22:52:59.953Z,1.60
2018-12-13T22:55:27.488Z,1.40
2018-12-13T22:57:55.038Z,1.10
2018-12-13T23:00:23.146Z,1.30
2018-12-13T23:02:50.733Z,1.30
2018-12-13T23:05:18.265Z,1.20
2018-12-13T23:07:45.817Z,1.30
2018-12-13T23:10:13.489Z,1.20
2018-12-13T23:12:41.071Z,0.90
2018-12-13T23:15:08.742Z,0.80
2018-12-13T23:17:36.321Z,0.90
2018-12-13T23:20:04.394Z,0.90
2018-12-13T23:22:31.975Z,0.90
2018-12-13T23:24:59.546Z,0.90
2018-12-13T23:27:27.213Z,1.10
2018-12-13T23:29:54.789Z,1.40
2018-12-13T23:32:22.474Z,1.50
2018-12-13T23:34:50.750Z,1.70
2018-12-13T23:37:18.325Z,1.70
2018-12-13T23:39:45.874Z,1.40
2018-12-13T23:42:13.474Z,1.70
2018-12-13T23:44:41.043Z,1.70
2018-12-13T23:47:08.583Z,1.80
2018-12-13T23:49:36.186Z,1.70
2018-12-13T23:52:03.858Z,1.60
2018-12-13T23:54:31.415Z,1.30
2018-12-13T23:56:58.960Z,1.20
2018-12-13T23:59:26.584Z,1.50
